sensor_id;sensor_type;location;lat;lon;timestamp;temperature;humidity
49901;DHT22;35789;48.414;12.768;2022-12-29T00:00:00;0.3;99.9
49901;DHT22;35789;48.414;12.768;2022-12-29T00:05:00;0.3;99.9
49901;DHT22;35789;48.414;12.768;2022-12-29T00:10:00;0.2;99.9
49901;DHT22;35789;48.414;12.768;2022-12-29T00:15:00;0.1;99.9
49901;DHT22;35789;48.414;12.768;2022-12-29T00:20:00;0.1;99.9
49901;DHT22;35789;48.414;12.768;2022-12-29T00:25:00;0.2;99.9
49901;DHT22;35789;48.414;12.768;2022-12-29T00:30:00;0.2;99.9
49901;DHT22;35789;48.414;12.768;2022-12-29T00:35:00;0.1;99.9
49901;DHT22;35789;48.414;12.768;2022-12-29T00:40:00;0.2;99.9
49901;DHT22;35789;48.414;12.768;2022-12-29T00:45:00;0.2;99.9
49901;DHT22;35789;48.414;12.768;2022-12-29T00:50:00;0.3;99.9
49901;DHT22;35789;48.414;12.768;2022-12-29T00:55:00;0.1;99.9
49901;DHT22;35789;48.414;12.768;2022-12-29T01:00:00;0.1;99.9
49901;DHT22;35789;48.414;12.768;2022-12-29T01:05:00;0.1;99.9
49901;DHT22;35789;48.414;12.768;2022-12-29T01:10:00;0.1;99.9
49901;DHT22;35789;48.414;12.768;2022-12-29T01:15:00;0.1;99.9
49901;DHT22;35789;48.414;12.768;2022-12-29T01:20:00;0.0;99.9
49901;DHT22;35789;48.414;12.768;2022-12-29T01:25:00;-0.2;99.9
49901;DHT22;35789;48.414;12.768;2022-12-29T01:30:00;0.0;99.9
49901;DHT22;35789;48.414;12.768;2022-12-29T01:35:00;0.0;99.9
49901;DHT22;35789;48.414;12.768;2022-12-29T01:40:00;0.1;99.9
49901;DHT22;35789;48.414;12.768;2022-12-29T01:45:00;0.1;99.9
49901;DHT22;35789;48.414;12.768;2022-12-29T01:50:02;0.0;99.9
49901;DHT22;35789;48.414;12.768;2022-12-29T01:55:00;0.1;99.9
49901;DHT22;35789;48.414;12.768;2022-12-29T02:00:01;0.1;99.9
49901;DHT22;35789;48.414;12.768;2022-12-29T02:05:01;0.0;99.9
49901;DHT22;35789;48.414;12.768;2022-12-29T02:10:00;0.0;99.9
49901;DHT22;35789;48.414;12.768;2022-12-29T02:15:00;-0.2;99.9
49901;DHT22;35789;48.414;12.768;2022-12-29T02:25:06;0.0;99.9
49901;DHT22;35789;48.414;12.768;2022-12-29T02:30:03;0.0;99.9
49901;DHT22;35789;48.414;12.768;2022-12-29T02:35:01;-0.2;99.9
49901;DHT22;35789;48.414;12.768;2022-12-29T02:40:01;-0.3;99.9
49901;DHT22;35789;48.414;12.768;2022-12-29T02:45:02;-0.2;99.9
49901;DHT22;35789;48.414;12.768;2022-12-29T02:50:01;-0.2;99.9
49901;DHT22;35789;48.414;12.768;2022-12-29T02:55:00;-0.3;99.9
49901;DHT22;35789;48.414;12.768;2022-12-29T03:00:02;-0.4;99.9
49901;DHT22;35789;48.414;12.768;2022-12-29T03:10:01;-0.4;99.9
49901;DHT22;35789;48.414;12.768;2022-12-29T03:15:02;-0.4;99.9
49901;DHT22;35789;48.414;12.768;2022-12-29T03:20:01;-0.4;99.9
49901;DHT22;35789;48.414;12.768;2022-12-29T03:25:01;-0.3;99.9
49901;DHT22;35789;48.414;12.768;2022-12-29T03:30:00;-0.3;99.9
49901;DHT22;35789;48.414;12.768;2022-12-29T03:35:00;0.0;99.9
49901;DHT22;35789;48.414;12.768;2022-12-29T03:40:00;0.0;99.9
49901;DHT22;35789;48.414;12.768;2022-12-29T03:45:00;0.0;99.9
49901;DHT22;35789;48.414;12.768;2022-12-29T03:50:00;0.0;99.9
49901;DHT22;35789;48.414;12.768;2022-12-29T03:55:00;0.0;99.9
49901;DHT22;35789;48.414;12.768;2022-12-29T04:00:00;0.1;99.9
49901;DHT22;35789;48.414;12.768;2022-12-29T04:05:00;0.0;99.9
49901;DHT22;35789;48.414;12.768;2022-12-29T04:10:00;0.0;99.9
49901;DHT22;35789;48.414;12.768;2022-12-29T04:15:00;-0.2;99.9
49901;DHT22;35789;48.414;12.768;2022-12-29T04:20:00;0.0;99.9
49901;DHT22;35789;48.414;12.768;2022-12-29T04:25:00;0.0;99.9
49901;DHT22;35789;48.414;12.768;2022-12-29T04:30:00;-0.2;99.9
49901;DHT22;35789;48.414;12.768;2022-12-29T04:35:00;-0.2;99.9
49901;DHT22;35789;48.414;12.768;2022-12-29T04:40:00;0.0;99.9
49901;DHT22;35789;48.414;12.768;2022-12-29T04:45:00;0.0;99.9
49901;DHT22;35789;48.414;12.768;2022-12-29T04:50:00;0.3;99.9
49901;DHT22;35789;48.414;12.768;2022-12-29T04:55:00;0.5;99.9
49901;DHT22;35789;48.414;12.768;2022-12-29T05:00:00;0.6;99.9
49901;DHT22;35789;48.414;12.768;2022-12-29T05:05:00;0.6;99.9
49901;DHT22;35789;48.414;12.768;2022-12-29T05:10:00;0.6;99.9
49901;DHT22;35789;48.414;12.768;2022-12-29T05:15:00;0.7;99.9
49901;DHT22;35789;48.414;12.768;2022-12-29T05:20:00;1.1;99.9
49901;DHT22;35789;48.414;12.768;2022-12-29T05:25:00;1.4;99.9
49901;DHT22;35789;48.414;12.768;2022-12-29T05:30:00;1.5;99.9
49901;DHT22;35789;48.414;12.768;2022-12-29T05:35:00;1.5;99.9
49901;DHT22;35789;48.414;12.768;2022-12-29T05:40:00;1.4;99.9
49901;DHT22;35789;48.414;12.768;2022-12-29T05:45:00;1.3;99.9
49901;DHT22;35789;48.414;12.768;2022-12-29T05:50:00;1.4;99.9
49901;DHT22;35789;48.414;12.768;2022-12-29T05:55:00;1.3;99.9
49901;DHT22;35789;48.414;12.768;2022-12-29T06:00:00;1.5;99.9
49901;DHT22;35789;48.414;12.768;2022-12-29T06:05:00;1.5;99.9
49901;DHT22;35789;48.414;12.768;2022-12-29T06:10:00;1.6;99.9
49901;DHT22;35789;48.414;12.768;2022-12-29T06:15:00;1.6;99.9
49901;DHT22;35789;48.414;12.768;2022-12-29T06:20:00;1.5;99.9
49901;DHT22;35789;48.414;12.768;2022-12-29T06:25:00;1.4;99.9
49901;DHT22;35789;48.414;12.768;2022-12-29T06:30:00;1.4;99.9
49901;DHT22;35789;48.414;12.768;2022-12-29T06:35:00;1.4;99.9
49901;DHT22;35789;48.414;12.768;2022-12-29T06:40:00;1.4;99.9
49901;DHT22;35789;48.414;12.768;2022-12-29T06:45:00;1.4;99.9
49901;DHT22;35789;48.414;12.768;2022-12-29T06:50:00;1.5;99.9
49901;DHT22;35789;48.414;12.768;2022-12-29T06:55:00;1.5;99.9
49901;DHT22;35789;48.414;12.768;2022-12-29T07:00:00;1.5;99.9
49901;DHT22;35789;48.414;12.768;2022-12-29T07:05:00;1.5;99.9
49901;DHT22;35789;48.414;12.768;2022-12-29T07:10:00;1.6;99.9
49901;DHT22;35789;48.414;12.768;2022-12-29T07:15:00;1.6;99.9
49901;DHT22;35789;48.414;12.768;2022-12-29T07:20:00;1.7;99.9
49901;DHT22;35789;48.414;12.768;2022-12-29T07:25:00;1.7;99.9
49901;DHT22;35789;48.414;12.768;2022-12-29T07:30:00;1.7;99.9
49901;DHT22;35789;48.414;12.768;2022-12-29T07:35:00;1.8;99.9
49901;DHT22;35789;48.414;12.768;2022-12-29T07:40:00;1.8;99.9
49901;DHT22;35789;48.414;12.768;2022-12-29T07:45:00;1.9;99.9
49901;DHT22;35789;48.414;12.768;2022-12-29T07:50:00;2.0;99.9
49901;DHT22;35789;48.414;12.768;2022-12-29T07:55:00;2.1;99.9
49901;DHT22;35789;48.414;12.768;2022-12-29T08:00:00;2.2;99.9
49901;DHT22;35789;48.414;12.768;2022-12-29T08:05:00;2.2;99.9
49901;DHT22;35789;48.414;12.768;2022-12-29T08:10:00;2.3;99.9
49901;DHT22;35789;48.414;12.768;2022-12-29T08:15:00;2.3;99.9
49901;DHT22;35789;48.414;12.768;2022-12-29T08:20:00;2.3;99.9
49901;DHT22;35789;48.414;12.768;2022-12-29T08:25:00;2.4;99.9
49901;DHT22;35789;48.414;12.768;2022-12-29T08:30:00;2.4;99.9
49901;DHT22;35789;48.414;12.768;2022-12-29T08:35:00;2.5;99.9
49901;DHT22;35789;48.414;12.768;2022-12-29T08:40:00;2.6;99.9
49901;DHT22;35789;48.414;12.768;2022-12-29T08:45:00;2.8;99.9
49901;DHT22;35789;48.414;12.768;2022-12-29T08:50:00;3.0;99.9
49901;DHT22;35789;48.414;12.768;2022-12-29T08:55:00;3.2;99.9
49901;DHT22;35789;48.414;12.768;2022-12-29T09:00:00;3.4;99.9
49901;DHT22;35789;48.414;12.768;2022-12-29T09:05:00;3.5;99.9
49901;DHT22;35789;48.414;12.768;2022-12-29T09:10:00;3.6;99.9
49901;DHT22;35789;48.414;12.768;2022-12-29T09:15:00;3.6;99.9
49901;DHT22;35789;48.414;12.768;2022-12-29T09:20:00;3.6;99.9
49901;DHT22;35789;48.414;12.768;2022-12-29T09:25:00;3.5;99.9
49901;DHT22;35789;48.414;12.768;2022-12-29T09:30:00;3.4;99.9
49901;DHT22;35789;48.414;12.768;2022-12-29T09:35:00;3.3;99.9
49901;DHT22;35789;48.414;12.768;2022-12-29T09:40:00;3.4;99.9
49901;DHT22;35789;48.414;12.768;2022-12-29T09:45:03;3.5;99.9
49901;DHT22;35789;48.414;12.768;2022-12-29T09:50:01;3.6;99.9
49901;DHT22;35789;48.414;12.768;2022-12-29T09:55:01;3.7;99.9
49901;DHT22;35789;48.414;12.768;2022-12-29T10:00:02;3.8;99.9
49901;DHT22;35789;48.414;12.768;2022-12-29T10:05:00;3.9;99.9
49901;DHT22;35789;48.414;12.768;2022-12-29T10:10:03;4.1;99.9
49901;DHT22;35789;48.414;12.768;2022-12-29T10:15:02;4.2;99.9
49901;DHT22;35789;48.414;12.768;2022-12-29T10:20:03;4.3;99.9
49901;DHT22;35789;48.414;12.768;2022-12-29T10:25:00;4.6;99.9
49901;DHT22;35789;48.414;12.768;2022-12-29T10:30:00;4.7;99.9
49901;DHT22;35789;48.414;12.768;2022-12-29T10:35:01;5.0;99.9
49901;DHT22;35789;48.414;12.768;2022-12-29T10:40:00;5.1;99.9
49901;DHT22;35789;48.414;12.768;2022-12-29T10:45:00;5.1;99.9
49901;DHT22;35789;48.414;12.768;2022-12-29T10:50:00;5.2;99.9
49901;DHT22;35789;48.414;12.768;2022-12-29T10:55:00;5.2;99.9
49901;DHT22;35789;48.414;12.768;2022-12-29T11:00:00;5.3;99.9
49901;DHT22;35789;48.414;12.768;2022-12-29T11:05:00;5.4;99.9
49901;DHT22;35789;48.414;12.768;2022-12-29T11:15:01;5.6;99.9
49901;DHT22;35789;48.414;12.768;2022-12-29T11:20:03;5.7;99.9
49901;DHT22;35789;48.414;12.768;2022-12-29T11:25:05;5.6;99.9
49901;DHT22;35789;48.414;12.768;2022-12-29T11:30:00;5.5;99.9
49901;DHT22;35789;48.414;12.768;2022-12-29T11:35:00;5.6;99.9
49901;DHT22;35789;48.414;12.768;2022-12-29T11:40:01;5.7;99.9
49901;DHT22;35789;48.414;12.768;2022-12-29T11:45:03;5.8;99.9
49901;DHT22;35789;48.414;12.768;2022-12-29T11:50:00;5.9;99.9
49901;DHT22;35789;48.414;12.768;2022-12-29T11:55:00;6.0;99.9
49901;DHT22;35789;48.414;12.768;2022-12-29T12:00:00;6.0;99.9
49901;DHT22;35789;48.414;12.768;2022-12-29T12:05:02;6.2;99.9
49901;DHT22;35789;48.414;12.768;2022-12-29T12:10:00;6.2;99.9
49901;DHT22;35789;48.414;12.768;2022-12-29T12:15:00;6.3;99.9
49901;DHT22;35789;48.414;12.768;2022-12-29T12:20:01;6.3;99.9
49901;DHT22;35789;48.414;12.768;2022-12-29T12:25:01;6.2;99.9
49901;DHT22;35789;48.414;12.768;2022-12-29T12:30:01;6.2;99.9
49901;DHT22;35789;48.414;12.768;2022-12-29T12:35:00;6.1;99.9
49901;DHT22;35789;48.414;12.768;2022-12-29T12:40:07;6.1;99.9
49901;DHT22;35789;48.414;12.768;2022-12-29T12:45:05;6.1;99.9
49901;DHT22;35789;48.414;12.768;2022-12-29T12:50:03;6.1;99.9
49901;DHT22;35789;48.414;12.768;2022-12-29T12:55:04;6.2;99.9
49901;DHT22;35789;48.414;12.768;2022-12-29T13:00:00;6.3;99.9
49901;DHT22;35789;48.414;12.768;2022-12-29T13:05:05;6.3;99.9
49901;DHT22;35789;48.414;12.768;2022-12-29T13:10:03;6.3;99.9
49901;DHT22;35789;48.414;12.768;2022-12-29T13:15:03;6.4;99.9
49901;DHT22;35789;48.414;12.768;2022-12-29T13:20:02;6.5;99.9
49901;DHT22;35789;48.414;12.768;2022-12-29T13:25:05;6.4;99.9
49901;DHT22;35789;48.414;12.768;2022-12-29T13:30:01;6.4;99.9
49901;DHT22;35789;48.414;12.768;2022-12-29T13:35:04;6.4;99.9
49901;DHT22;35789;48.414;12.768;2022-12-29T13:40:01;6.3;99.9
49901;DHT22;35789;48.414;12.768;2022-12-29T13:45:01;6.1;99.9
49901;DHT22;35789;48.414;12.768;2022-12-29T13:50:00;6.0;99.9
49901;DHT22;35789;48.414;12.768;2022-12-29T13:55:01;6.0;99.9
49901;DHT22;35789;48.414;12.768;2022-12-29T14:00:01;5.9;99.9
49901;DHT22;35789;48.414;12.768;2022-12-29T14:05:01;5.8;99.9
49901;DHT22;35789;48.414;12.768;2022-12-29T14:10:00;5.6;99.9
49901;DHT22;35789;48.414;12.768;2022-12-29T14:15:02;5.6;99.9
49901;DHT22;35789;48.414;12.768;2022-12-29T14:20:00;5.5;99.9
49901;DHT22;35789;48.414;12.768;2022-12-29T14:25:00;5.5;99.9
49901;DHT22;35789;48.414;12.768;2022-12-29T14:30:00;5.6;99.9
49901;DHT22;35789;48.414;12.768;2022-12-29T14:35:00;5.6;99.9
49901;DHT22;35789;48.414;12.768;2022-12-29T14:40:02;5.6;99.9
49901;DHT22;35789;48.414;12.768;2022-12-29T14:45:02;5.4;99.9
49901;DHT22;35789;48.414;12.768;2022-12-29T14:50:02;5.3;99.9
49901;DHT22;35789;48.414;12.768;2022-12-29T14:55:03;5.2;99.9
49901;DHT22;35789;48.414;12.768;2022-12-29T15:00:06;5.1;99.9
49901;DHT22;35789;48.414;12.768;2022-12-29T15:05:00;5.0;99.9
49901;DHT22;35789;48.414;12.768;2022-12-29T15:10:03;5.0;99.9
49901;DHT22;35789;48.414;12.768;2022-12-29T15:15:00;5.0;99.9
49901;DHT22;35789;48.414;12.768;2022-12-29T15:20:01;4.9;99.9
49901;DHT22;35789;48.414;12.768;2022-12-29T15:25:00;4.8;99.9
49901;DHT22;35789;48.414;12.768;2022-12-29T15:30:00;4.8;99.9
49901;DHT22;35789;48.414;12.768;2022-12-29T15:35:00;4.7;99.9
49901;DHT22;35789;48.414;12.768;2022-12-29T15:40:00;4.5;99.9
49901;DHT22;35789;48.414;12.768;2022-12-29T15:45:02;4.4;99.9
49901;DHT22;35789;48.414;12.768;2022-12-29T15:50:02;4.4;99.9
49901;DHT22;35789;48.414;12.768;2022-12-29T15:55:00;4.3;99.9
49901;DHT22;35789;48.414;12.768;2022-12-29T16:00:00;4.3;99.9
49901;DHT22;35789;48.414;12.768;2022-12-29T16:05:00;4.2;99.9
49901;DHT22;35789;48.414;12.768;2022-12-29T16:10:00;4.1;99.9
49901;DHT22;35789;48.414;12.768;2022-12-29T16:15:00;4.1;99.9
49901;DHT22;35789;48.414;12.768;2022-12-29T16:20:00;4.1;99.9
49901;DHT22;35789;48.414;12.768;2022-12-29T16:25:01;4.0;99.9
49901;DHT22;35789;48.414;12.768;2022-12-29T16:30:03;3.9;99.9
49901;DHT22;35789;48.414;12.768;2022-12-29T16:35:07;3.9;99.9
49901;DHT22;35789;48.414;12.768;2022-12-29T16:45:03;4.0;99.9
49901;DHT22;35789;48.414;12.768;2022-12-29T16:50:09;4.0;99.9
49901;DHT22;35789;48.414;12.768;2022-12-29T16:55:00;4.1;99.9
49901;DHT22;35789;48.414;12.768;2022-12-29T17:00:01;4.1;99.9
49901;DHT22;35789;48.414;12.768;2022-12-29T17:05:00;4.1;99.9
49901;DHT22;35789;48.414;12.768;2022-12-29T17:10:00;4.1;99.9
49901;DHT22;35789;48.414;12.768;2022-12-29T17:15:00;4.1;99.9
49901;DHT22;35789;48.414;12.768;2022-12-29T17:20:01;4.1;99.9
49901;DHT22;35789;48.414;12.768;2022-12-29T17:25:00;4.2;99.9
49901;DHT22;35789;48.414;12.768;2022-12-29T17:30:01;4.2;99.9
49901;DHT22;35789;48.414;12.768;2022-12-29T17:35:00;4.1;99.9
49901;DHT22;35789;48.414;12.768;2022-12-29T17:40:00;4.1;99.9
49901;DHT22;35789;48.414;12.768;2022-12-29T17:45:00;4.1;99.9
49901;DHT22;35789;48.414;12.768;2022-12-29T17:50:00;4.1;99.9
49901;DHT22;35789;48.414;12.768;2022-12-29T17:55:00;4.1;99.9
49901;DHT22;35789;48.414;12.768;2022-12-29T18:00:00;4.1;99.9
49901;DHT22;35789;48.414;12.768;2022-12-29T18:05:00;4.1;99.9
49901;DHT22;35789;48.414;12.768;2022-12-29T18:10:00;4.1;99.9
49901;DHT22;35789;48.414;12.768;2022-12-29T18:15:00;4.1;99.9
49901;DHT22;35789;48.414;12.768;2022-12-29T18:20:00;4.1;99.9
49901;DHT22;35789;48.414;12.768;2022-12-29T18:25:00;4.0;99.9
49901;DHT22;35789;48.414;12.768;2022-12-29T18:30:00;4.0;99.9
49901;DHT22;35789;48.414;12.768;2022-12-29T18:35:00;4.0;99.9
49901;DHT22;35789;48.414;12.768;2022-12-29T18:40:00;3.9;99.9
49901;DHT22;35789;48.414;12.768;2022-12-29T18:45:00;3.8;99.9
49901;DHT22;35789;48.414;12.768;2022-12-29T18:50:00;3.7;99.9
49901;DHT22;35789;48.414;12.768;2022-12-29T18:55:00;3.7;99.9
49901;DHT22;35789;48.414;12.768;2022-12-29T19:00:00;3.6;99.9
49901;DHT22;35789;48.414;12.768;2022-12-29T19:05:00;3.5;99.9
49901;DHT22;35789;48.414;12.768;2022-12-29T19:10:00;3.5;99.9
49901;DHT22;35789;48.414;12.768;2022-12-29T19:15:00;3.5;99.9
49901;DHT22;35789;48.414;12.768;2022-12-29T19:20:00;3.5;99.9
49901;DHT22;35789;48.414;12.768;2022-12-29T19:25:00;3.5;99.9
49901;DHT22;35789;48.414;12.768;2022-12-29T19:30:00;3.5;99.9
49901;DHT22;35789;48.414;12.768;2022-12-29T19:35:00;3.5;99.9
49901;DHT22;35789;48.414;12.768;2022-12-29T19:40:00;3.4;99.9
49901;DHT22;35789;48.414;12.768;2022-12-29T19:45:00;3.4;99.9
49901;DHT22;35789;48.414;12.768;2022-12-29T19:50:00;3.4;99.9
49901;DHT22;35789;48.414;12.768;2022-12-29T19:55:00;3.3;99.9
49901;DHT22;35789;48.414;12.768;2022-12-29T20:00:00;3.3;99.9
49901;DHT22;35789;48.414;12.768;2022-12-29T20:05:00;3.3;99.9
49901;DHT22;35789;48.414;12.768;2022-12-29T20:10:00;3.3;99.9
49901;DHT22;35789;48.414;12.768;2022-12-29T20:15:00;3.4;99.9
49901;DHT22;35789;48.414;12.768;2022-12-29T20:20:00;3.4;99.9
49901;DHT22;35789;48.414;12.768;2022-12-29T20:25:00;3.3;99.9
49901;DHT22;35789;48.414;12.768;2022-12-29T20:30:00;3.4;99.9
49901;DHT22;35789;48.414;12.768;2022-12-29T20:35:00;3.4;99.9
49901;DHT22;35789;48.414;12.768;2022-12-29T20:40:00;3.4;99.9
49901;DHT22;35789;48.414;12.768;2022-12-29T20:45:00;3.4;99.9
49901;DHT22;35789;48.414;12.768;2022-12-29T20:50:00;3.3;99.9
49901;DHT22;35789;48.414;12.768;2022-12-29T20:55:00;3.4;99.9
49901;DHT22;35789;48.414;12.768;2022-12-29T21:00:00;3.4;99.9
49901;DHT22;35789;48.414;12.768;2022-12-29T21:05:00;3.4;99.9
49901;DHT22;35789;48.414;12.768;2022-12-29T21:10:00;3.4;99.9
49901;DHT22;35789;48.414;12.768;2022-12-29T21:15:00;3.5;99.9
49901;DHT22;35789;48.414;12.768;2022-12-29T21:20:00;3.4;99.9
49901;DHT22;35789;48.414;12.768;2022-12-29T21:25:00;3.5;99.9
49901;DHT22;35789;48.414;12.768;2022-12-29T21:30:00;3.5;99.9
49901;DHT22;35789;48.414;12.768;2022-12-29T21:35:00;3.5;99.9
49901;DHT22;35789;48.414;12.768;2022-12-29T21:40:00;3.5;99.9
49901;DHT22;35789;48.414;12.768;2022-12-29T21:45:00;3.5;99.9
49901;DHT22;35789;48.414;12.768;2022-12-29T21:50:00;3.5;99.9
49901;DHT22;35789;48.414;12.768;2022-12-29T21:55:00;3.5;99.9
49901;DHT22;35789;48.414;12.768;2022-12-29T22:00:00;3.5;99.9
49901;DHT22;35789;48.414;12.768;2022-12-29T22:05:00;3.6;99.9
49901;DHT22;35789;48.414;12.768;2022-12-29T22:10:00;3.6;99.9
49901;DHT22;35789;48.414;12.768;2022-12-29T22:15:00;3.6;99.9
49901;DHT22;35789;48.414;12.768;2022-12-29T22:20:00;3.7;99.9
49901;DHT22;35789;48.414;12.768;2022-12-29T22:25:00;3.7;99.9
49901;DHT22;35789;48.414;12.768;2022-12-29T22:30:00;3.6;99.9
49901;DHT22;35789;48.414;12.768;2022-12-29T22:35:00;3.6;99.9
49901;DHT22;35789;48.414;12.768;2022-12-29T22:40:00;3.6;99.9
49901;DHT22;35789;48.414;12.768;2022-12-29T22:45:00;3.7;99.9
49901;DHT22;35789;48.414;12.768;2022-12-29T22:50:00;3.7;99.9
49901;DHT22;35789;48.414;12.768;2022-12-29T22:55:00;3.7;99.9
49901;DHT22;35789;48.414;12.768;2022-12-29T23:00:00;3.6;99.9
49901;DHT22;35789;48.414;12.768;2022-12-29T23:05:00;3.6;99.9
49901;DHT22;35789;48.414;12.768;2022-12-29T23:10:00;3.6;99.9
49901;DHT22;35789;48.414;12.768;2022-12-29T23:15:00;3.6;99.9
49901;DHT22;35789;48.414;12.768;2022-12-29T23:20:00;3.5;99.9
49901;DHT22;35789;48.414;12.768;2022-12-29T23:25:00;3.5;99.9
49901;DHT22;35789;48.414;12.768;2022-12-29T23:30:00;3.4;99.9
49901;DHT22;35789;48.414;12.768;2022-12-29T23:35:00;3.4;99.9
49901;DHT22;35789;48.414;12.768;2022-12-29T23:40:00;3.4;99.9
49901;DHT22;35789;48.414;12.768;2022-12-29T23:45:00;3.4;99.9
49901;DHT22;35789;48.414;12.768;2022-12-29T23:50:00;3.3;99.9
49901;DHT22;35789;48.414;12.768;2022-12-29T23:55:00;3.3;99.9
